createdAt,value
2019-02-02T00:01:03.422Z,76332.51
2019-02-02T00:03:34.905Z,76303.36
2019-02-02T00:06:06.542Z,76309.39
2019-02-02T00:08:37.895Z,76332.51
2019-02-02T00:11:09.377Z,76335.52
2019-02-02T00:13:40.714Z,76338.53
2019-02-02T00:16:12.021Z,76337.53
2019-02-02T00:18:43.802Z,76334.52
2019-02-02T00:21:15.157Z,76347.58
2019-02-02T00:23:50.109Z,76344.56
2019-02-02T00:26:21.626Z,76328.48
2019-02-02T00:28:53.202Z,76351.60
2019-02-02T00:31:25.494Z,76356.63
2019-02-02T00:33:56.871Z,76357.63
2019-02-02T00:36:28.410Z,76350.59
2019-02-02T00:38:59.797Z,76339.55
2019-02-02T00:41:31.104Z,76344.56
2019-02-02T00:44:02.507Z,76358.64
2019-02-02T00:46:33.845Z,76337.53
2019-02-02T00:49:05.856Z,76350.59
2019-02-02T00:51:37.361Z,76351.60
2019-02-02T00:54:08.931Z,76329.49
2019-02-02T00:56:40.080Z,76354.62
2019-02-02T00:59:11.426Z,76365.67
2019-02-02T01:01:45.831Z,76369.70
2019-02-02T01:04:20.165Z,76366.68
2019-02-02T01:06:56.569Z,76363.66
2019-02-02T01:09:28.795Z,76363.66
2019-02-02T01:12:00.139Z,76373.72
2019-02-02T01:14:32.127Z,76361.66
2019-02-02T01:17:03.356Z,76365.67
2019-02-02T01:19:34.469Z,76363.66
2019-02-02T01:22:07.896Z,76368.69
2019-02-02T01:24:39.187Z,76350.59
2019-02-02T01:27:10.698Z,76360.65
2019-02-02T01:29:44.821Z,76366.68
2019-02-02T01:32:22.411Z,76371.70
2019-02-02T01:34:53.699Z,76375.72
2019-02-02T01:37:25.366Z,76367.69
2019-02-02T01:39:56.577Z,76365.67
2019-02-02T01:42:27.772Z,76362.66
2019-02-02T01:45:02.479Z,76353.61
2019-02-02T01:47:33.981Z,76346.58
2019-02-02T01:50:06.303Z,76349.59
2019-02-02T01:52:37.550Z,76357.63
2019-02-02T01:55:11.056Z,76352.61
2019-02-02T01:57:42.477Z,76353.61
2019-02-02T02:00:21.711Z,76361.66
2019-02-02T02:02:52.902Z,76350.59
2019-02-02T02:05:24.248Z,76341.55
2019-02-02T02:07:56.954Z,76330.50
2019-02-02T02:10:29.427Z,76342.56
2019-02-02T02:13:01.719Z,76351.60
2019-02-02T02:15:33.714Z,76350.59
2019-02-02T02:18:05.330Z,76341.55
2019-02-02T02:20:37.226Z,76349.59
2019-02-02T02:23:08.528Z,76355.63
2019-02-02T02:25:39.820Z,76355.63
2019-02-02T02:28:10.996Z,76336.53
2019-02-02T02:30:42.332Z,76337.53
2019-02-02T02:33:13.597Z,76344.56
2019-02-02T02:35:44.877Z,76345.58
2019-02-02T02:38:16.087Z,76355.63
2019-02-02T02:40:47.380Z,76346.58
2019-02-02T02:43:18.572Z,76340.55
2019-02-02T02:45:49.850Z,76321.45
2019-02-02T02:48:21.076Z,76329.49
2019-02-02T02:50:52.362Z,76328.48
2019-02-02T02:53:23.521Z,76335.52
2019-02-02T02:55:54.755Z,76338.53
2019-02-02T02:58:26.083Z,76325.47
2019-02-02T03:00:57.331Z,76324.47
2019-02-02T03:03:28.595Z,76329.49
2019-02-02T03:05:59.859Z,76336.53
2019-02-02T03:08:31.211Z,76351.60
2019-02-02T03:11:02.491Z,76329.49
2019-02-02T03:13:33.733Z,76335.52
2019-02-02T03:16:05.055Z,76337.53
2019-02-02T03:18:36.300Z,76325.47
2019-02-02T03:21:07.538Z,76330.50
2019-02-02T03:23:38.805Z,76351.60
2019-02-02T03:26:10.214Z,76350.59
2019-02-02T03:28:52.917Z,76349.59
2019-02-02T03:31:14.363Z,76356.63
2019-02-02T03:33:45.596Z,76359.64
2019-02-02T03:36:16.778Z,76365.67
2019-02-02T03:38:48.174Z,76343.56
2019-02-02T03:41:19.383Z,76356.63
2019-02-02T03:43:50.565Z,76340.55
2019-02-02T03:46:21.786Z,76345.58
2019-02-02T03:48:53.023Z,76339.55
2019-02-02T03:51:24.163Z,76343.56
2019-02-02T03:54:07.879Z,76320.45
2019-02-02T03:56:28.377Z,76328.48
2019-02-02T03:59:06.799Z,76339.55
2019-02-02T04:01:32.999Z,76349.59
2019-02-02T04:04:04.785Z,76369.70
2019-02-02T04:06:36.068Z,76377.73
2019-02-02T04:09:09.596Z,76377.73
2019-02-02T04:11:43.406Z,76380.75
2019-02-02T04:14:13.871Z,76380.75
2019-02-02T04:16:45.082Z,76385.77
2019-02-02T04:19:16.255Z,76367.69
2019-02-02T04:21:47.550Z,76375.72
2019-02-02T04:24:18.776Z,76379.74
2019-02-02T04:26:50.063Z,76376.73
2019-02-02T04:29:21.281Z,76380.75
2019-02-02T04:31:52.586Z,76380.75
2019-02-02T04:34:23.832Z,76363.66
2019-02-02T04:36:55.096Z,76365.67
2019-02-02T04:39:26.289Z,76360.65
2019-02-02T04:41:57.520Z,76323.46
2019-02-02T04:44:28.718Z,76311.41
2019-02-02T04:46:59.972Z,76286.28
2019-02-02T04:49:31.276Z,76287.28
2019-02-02T04:52:02.490Z,76292.30
2019-02-02T04:54:33.707Z,76315.42
2019-02-02T04:57:05.021Z,76292.30
2019-02-02T04:59:36.225Z,76307.38
2019-02-02T05:02:07.385Z,76290.30
2019-02-02T05:04:38.576Z,76309.39
2019-02-02T05:07:09.787Z,76315.42
2019-02-02T05:09:41.103Z,76299.34
2019-02-02T05:12:12.338Z,76315.42
2019-02-02T05:14:43.647Z,76307.38
2019-02-02T05:17:14.804Z,76324.47
2019-02-02T05:19:46.079Z,76309.39
2019-02-02T05:22:17.290Z,76332.51
2019-02-02T05:24:48.537Z,76328.48
2019-02-02T05:27:19.814Z,76322.45
2019-02-02T05:29:51.027Z,76308.39
2019-02-02T05:32:22.208Z,76311.41
2019-02-02T05:34:53.446Z,76319.44
2019-02-02T05:37:24.847Z,76321.45
2019-02-02T05:39:56.124Z,76333.52
2019-02-02T05:42:27.400Z,76355.63
2019-02-02T05:44:58.659Z,76367.69
2019-02-02T05:47:29.888Z,76372.70
2019-02-02T05:50:01.122Z,76382.76
2019-02-02T05:52:32.362Z,76382.76
2019-02-02T05:55:03.591Z,76385.77
2019-02-02T05:57:34.838Z,76385.77
2019-02-02T06:00:09.370Z,76369.70
2019-02-02T06:02:40.527Z,76382.76
2019-02-02T06:05:11.901Z,76377.73
2019-02-02T06:07:43.155Z,76341.55
2019-02-02T06:10:16.405Z,76314.42
2019-02-02T06:12:47.623Z,76326.48
2019-02-02T06:15:19.131Z,76337.53
2019-02-02T06:17:50.524Z,76353.61
2019-02-02T06:20:21.810Z,76349.59
2019-02-02T06:22:53.071Z,76349.59
2019-02-02T06:25:24.419Z,76354.62
2019-02-02T06:27:55.603Z,76345.58
2019-02-02T06:30:27.410Z,76345.58
2019-02-02T06:32:58.687Z,76331.50
2019-02-02T06:35:29.908Z,76327.48
2019-02-02T06:38:01.101Z,76324.47
2019-02-02T06:40:32.365Z,76317.43
2019-02-02T06:43:03.625Z,76319.44
2019-02-02T06:45:37.254Z,76323.46
2019-02-02T06:48:08.708Z,76322.45
2019-02-02T06:50:39.883Z,76327.48
2019-02-02T06:53:11.124Z,76348.59
2019-02-02T06:55:42.398Z,76348.59
2019-02-02T06:58:13.650Z,76359.64
2019-02-02T07:00:44.835Z,76353.61
2019-02-02T07:03:16.121Z,76347.58
2019-02-02T07:05:47.401Z,76368.69
2019-02-02T07:08:18.650Z,76366.68
2019-02-02T07:10:49.802Z,76362.66
2019-02-02T07:13:21.072Z,76363.66
2019-02-02T07:15:52.277Z,76369.70
2019-02-02T07:18:23.563Z,76365.67
2019-02-02T07:20:54.888Z,76369.70
2019-02-02T07:23:26.107Z,76375.72
2019-02-02T07:25:57.399Z,76378.73
2019-02-02T07:28:28.565Z,76379.74
2019-02-02T07:30:59.720Z,76375.72
2019-02-02T07:33:31.016Z,76374.72
2019-02-02T07:36:02.377Z,76382.76
2019-02-02T07:38:33.676Z,76397.83
2019-02-02T07:41:07.139Z,76389.80
2019-02-02T07:43:38.063Z,76391.80
2019-02-02T07:46:15.054Z,76404.87
2019-02-02T07:48:42.341Z,76394.82
2019-02-02T07:51:13.613Z,76393.81
2019-02-02T07:53:44.831Z,76392.81
2019-02-02T07:56:16.098Z,76396.83
2019-02-02T07:58:47.432Z,76397.83
2019-02-02T08:01:18.651Z,76397.83
2019-02-02T08:03:49.925Z,76393.81
2019-02-02T08:06:21.200Z,76391.80
2019-02-02T08:08:52.466Z,76388.79
2019-02-02T08:11:23.780Z,76390.80
2019-02-02T08:13:55.039Z,76401.85
2019-02-02T08:16:26.355Z,76416.93
2019-02-02T08:18:57.709Z,76404.87
2019-02-02T08:21:28.995Z,76401.85
2019-02-02T08:24:00.044Z,76425.97
2019-02-02T08:26:31.281Z,76423.97
2019-02-02T08:29:02.478Z,76423.97
2019-02-02T08:31:33.706Z,76424.97
2019-02-02T08:34:05.001Z,76435.02
2019-02-02T08:36:36.176Z,76443.06
2019-02-02T08:39:11.291Z,76421.95
2019-02-02T08:41:42.520Z,76436.03
2019-02-02T08:44:13.800Z,76454.12
2019-02-02T08:47:04.872Z,76451.09
2019-02-02T08:49:36.180Z,76445.07
2019-02-02T08:52:07.403Z,76454.12
2019-02-02T08:54:38.622Z,76454.12
2019-02-02T08:57:09.895Z,76448.09
2019-02-02T08:59:41.220Z,76432.01
2019-02-02T09:02:12.570Z,76436.03
2019-02-02T09:04:43.755Z,76423.97
2019-02-02T09:07:15.013Z,76416.93
2019-02-02T09:09:47.004Z,76429.99
2019-02-02T09:12:18.320Z,76417.94
2019-02-02T09:14:49.571Z,76403.86
2019-02-02T09:17:20.985Z,76387.78
2019-02-02T09:19:52.207Z,76405.88
2019-02-02T09:22:23.570Z,76403.86
2019-02-02T09:24:54.748Z,76390.80
2019-02-02T09:27:26.075Z,76371.70
2019-02-02T09:29:57.309Z,76382.76
2019-02-02T09:32:28.529Z,76382.76
2019-02-02T09:34:59.767Z,76377.73
2019-02-02T09:37:32.096Z,76385.77
2019-02-02T09:40:03.428Z,76384.77
2019-02-02T09:42:34.597Z,76379.74
2019-02-02T09:45:10.467Z,76380.75
2019-02-02T09:47:44.507Z,76393.81
2019-02-02T09:50:20.727Z,76405.88
2019-02-02T09:52:52.164Z,76402.86
2019-02-02T09:55:25.028Z,76435.02
2019-02-02T09:58:03.638Z,76410.90
2019-02-02T10:00:35.384Z,76425.97
2019-02-02T10:03:07.023Z,76429.99
2019-02-02T10:05:38.431Z,76426.98
2019-02-02T10:08:09.596Z,76457.13
2019-02-02T10:10:48.411Z,76463.16
2019-02-02T10:13:19.700Z,76455.13
2019-02-02T10:15:50.968Z,76438.03
2019-02-02T10:18:22.404Z,76445.07
2019-02-02T10:21:03.686Z,76462.16
2019-02-02T10:23:26.736Z,76453.11
2019-02-02T10:25:58.269Z,76443.06
2019-02-02T10:28:29.556Z,76452.11
2019-02-02T10:31:04.691Z,76448.09
2019-02-02T10:33:36.111Z,76469.19
2019-02-02T10:36:16.064Z,76467.18
2019-02-02T10:38:47.496Z,76476.23
2019-02-02T10:41:18.602Z,76482.26
2019-02-02T10:43:49.816Z,76473.21
2019-02-02T10:46:20.975Z,76488.29
2019-02-02T10:48:52.334Z,76479.24
2019-02-02T10:51:25.505Z,76482.26
2019-02-02T10:53:56.622Z,76487.28
2019-02-02T10:56:27.928Z,76507.38
2019-02-02T10:58:59.186Z,76501.36
2019-02-02T11:01:30.529Z,76505.38
2019-02-02T11:04:01.777Z,76514.42
2019-02-02T11:06:33.217Z,76504.37
2019-02-02T11:09:06.182Z,76509.39
2019-02-02T11:11:37.445Z,76499.34
2019-02-02T11:14:08.864Z,76497.33
2019-02-02T11:16:40.185Z,76499.34
2019-02-02T11:19:11.615Z,76489.30
2019-02-02T11:21:43.077Z,76496.33
2019-02-02T11:24:14.614Z,76488.29
2019-02-02T11:26:46.036Z,76473.21
2019-02-02T11:29:17.521Z,76486.28
2019-02-02T11:31:48.867Z,76519.44
2019-02-02T11:34:20.175Z,76518.44
2019-02-02T11:36:51.350Z,76514.42
2019-02-02T11:39:22.569Z,76517.44
2019-02-02T11:41:53.819Z,76534.52
2019-02-02T11:44:25.147Z,76547.59
2019-02-02T11:46:56.460Z,76558.64
2019-02-02T11:49:27.874Z,76545.58
2019-02-02T11:51:59.118Z,76552.61
2019-02-02T11:54:30.559Z,76564.67
2019-02-02T11:57:02.023Z,76582.77
2019-02-02T11:59:33.362Z,76587.79
2019-02-02T12:02:14.243Z,76582.77
2019-02-02T12:04:37.736Z,76599.85
2019-02-02T12:07:09.021Z,76598.84
2019-02-02T12:09:40.297Z,76579.75
2019-02-02T12:12:11.567Z,76586.78
2019-02-02T12:14:42.953Z,76576.73
2019-02-02T12:17:14.225Z,76569.70
2019-02-02T12:19:45.425Z,76580.75
2019-02-02T12:22:16.716Z,76585.78
2019-02-02T12:24:48.079Z,76577.73
2019-02-02T12:27:19.338Z,76569.70
2019-02-02T12:29:50.608Z,76586.78
2019-02-02T12:32:26.644Z,76600.86
2019-02-02T12:34:54.839Z,76601.86
2019-02-02T12:37:26.184Z,76605.88
2019-02-02T12:39:57.554Z,76606.89
2019-02-02T12:42:28.903Z,76617.94
2019-02-02T12:45:00.334Z,76616.94
2019-02-02T12:47:31.715Z,76625.98
2019-02-02T12:50:03.009Z,76625.98
2019-02-02T12:52:34.557Z,76636.03
2019-02-02T12:55:06.261Z,76635.03
2019-02-02T12:57:37.575Z,76639.05
2019-02-02T13:00:15.007Z,76652.11
2019-02-02T13:02:46.746Z,76650.11
2019-02-02T13:05:20.590Z,76654.13
2019-02-02T13:07:52.175Z,76668.20
2019-02-02T13:10:26.172Z,76679.25
2019-02-02T13:12:57.710Z,76694.33
2019-02-02T13:15:29.059Z,76691.31
2019-02-02T13:18:00.407Z,76693.33
2019-02-02T13:20:31.649Z,76694.33
2019-02-02T13:23:02.895Z,76715.44
2019-02-02T13:25:34.273Z,76713.42
2019-02-02T13:28:05.724Z,76728.50
2019-02-02T13:30:38.109Z,76728.50
2019-02-02T13:33:09.963Z,76741.57
2019-02-02T13:35:44.652Z,76755.64
2019-02-02T13:38:15.903Z,76762.68
2019-02-02T13:40:47.297Z,76746.59
2019-02-02T13:43:18.591Z,76748.61
2019-02-02T13:45:49.982Z,76765.70
2019-02-02T13:48:28.668Z,76767.70
2019-02-02T13:51:00.114Z,76766.70
2019-02-02T13:53:31.447Z,76767.70
2019-02-02T13:56:02.723Z,76772.73
2019-02-02T13:58:34.063Z,76768.71
2019-02-02T14:01:05.406Z,76762.68
2019-02-02T14:03:36.805Z,76767.70
2019-02-02T14:06:09.304Z,76769.72
2019-02-02T14:08:40.847Z,76769.72
2019-02-02T14:11:12.166Z,76759.66
2019-02-02T14:13:43.914Z,76775.75
2019-02-02T14:16:15.333Z,76794.84
2019-02-02T14:18:46.663Z,76804.89
2019-02-02T14:21:17.935Z,76819.97
2019-02-02T14:23:49.299Z,76817.96
2019-02-02T14:26:20.621Z,76818.97
2019-02-02T14:28:51.877Z,76832.03
2019-02-02T14:31:23.281Z,76843.09
2019-02-02T14:33:56.975Z,76856.16
2019-02-02T14:36:28.307Z,76856.16
2019-02-02T14:38:59.600Z,76856.16
2019-02-02T14:41:31.022Z,76860.18
2019-02-02T14:44:02.321Z,76859.17
2019-02-02T14:46:33.808Z,76868.22
2019-02-02T14:49:05.162Z,76876.27
2019-02-02T14:51:36.507Z,76876.27
2019-02-02T14:54:26.785Z,76866.21
2019-02-02T14:56:58.150Z,76859.17
2019-02-02T14:59:29.456Z,76861.19
2019-02-02T15:02:00.899Z,76865.20
2019-02-02T15:04:32.230Z,76883.30
2019-02-02T15:07:03.525Z,76881.29
2019-02-02T15:09:34.847Z,76898.38
2019-02-02T15:12:06.168Z,76905.41
2019-02-02T15:14:39.472Z,76897.38
2019-02-02T15:17:10.684Z,76907.42
2019-02-02T15:19:42.092Z,76903.41
2019-02-02T15:22:13.392Z,76920.48
2019-02-02T15:24:44.698Z,76923.51
2019-02-02T15:27:16.305Z,76919.48
2019-02-02T15:29:47.634Z,76913.45
2019-02-02T15:32:18.897Z,76912.45
2019-02-02T15:34:50.249Z,76916.47
2019-02-02T15:37:21.506Z,76916.47
2019-02-02T15:39:52.998Z,76916.47
2019-02-02T15:42:24.502Z,76935.56
2019-02-02T15:44:58.069Z,76947.63
2019-02-02T15:47:29.395Z,76941.59
2019-02-02T15:50:00.741Z,76933.56
2019-02-02T15:52:32.227Z,76928.53
2019-02-02T15:55:03.640Z,76936.57
2019-02-02T15:57:35.043Z,76951.66
2019-02-02T16:00:09.852Z,76959.69
2019-02-02T16:02:41.168Z,76971.75
2019-02-02T16:05:14.914Z,76980.80
2019-02-02T16:07:46.203Z,76986.83
2019-02-02T16:10:21.324Z,76986.83
2019-02-02T16:12:53.031Z,76989.84
2019-02-02T16:15:24.344Z,76989.84
2019-02-02T16:17:55.689Z,76981.80
2019-02-02T16:20:33.540Z,76978.79
2019-02-02T16:23:05.067Z,76985.83
2019-02-02T16:25:36.440Z,76992.86
2019-02-02T16:28:08.305Z,77002.91
2019-02-02T16:30:39.542Z,77009.95
2019-02-02T16:33:10.915Z,77011.97
2019-02-02T16:35:42.234Z,76997.89
2019-02-02T16:38:13.535Z,77009.95
2019-02-02T16:40:44.893Z,77014.98
2019-02-02T16:43:16.145Z,77022.02
2019-02-02T16:45:47.424Z,77031.06
2019-02-02T16:48:18.738Z,77043.13
2019-02-02T16:50:50.005Z,77036.09
2019-02-02T16:53:21.903Z,77056.20
2019-02-02T16:55:53.357Z,77063.23
2019-02-02T16:58:24.651Z,77070.27
2019-02-02T17:00:55.968Z,77074.28
2019-02-02T17:03:27.294Z,77072.27
2019-02-02T17:05:58.518Z,77071.27
2019-02-02T17:08:29.717Z,77063.23
2019-02-02T17:11:00.999Z,77073.28
2019-02-02T17:13:32.289Z,77068.25
2019-02-02T17:16:03.530Z,77082.33
2019-02-02T17:18:34.707Z,77083.33
2019-02-02T17:21:06.405Z,77085.34
2019-02-02T17:23:37.667Z,77081.33
2019-02-02T17:26:09.380Z,77095.39
2019-02-02T17:28:40.647Z,77099.42
2019-02-02T17:31:14.547Z,77111.48
2019-02-02T17:33:45.788Z,77105.45
2019-02-02T17:36:17.290Z,77115.50
2019-02-02T17:38:48.491Z,77105.45
2019-02-02T17:41:19.765Z,77114.50
2019-02-02T17:43:51.323Z,77115.50
2019-02-02T17:46:22.589Z,77131.59
2019-02-02T17:48:53.875Z,77137.62
2019-02-02T17:51:25.190Z,77133.59
2019-02-02T17:53:56.487Z,77143.65
2019-02-02T17:56:27.757Z,77139.63
2019-02-02T17:58:59.221Z,77139.63
2019-02-02T18:01:30.701Z,77137.62
2019-02-02T18:04:02.102Z,77146.66
2019-02-02T18:06:33.245Z,77153.70
2019-02-02T18:09:06.202Z,77161.74
2019-02-02T18:11:37.548Z,77162.75
2019-02-02T18:14:08.815Z,77161.74
2019-02-02T18:16:40.462Z,77175.81
2019-02-02T18:19:11.761Z,77193.91
2019-02-02T18:21:43.149Z,77184.86
2019-02-02T18:24:14.433Z,77198.94
2019-02-02T18:26:45.808Z,77195.92
2019-02-02T18:29:17.226Z,77205.97
2019-02-02T18:31:48.721Z,77212.01
2019-02-02T18:34:19.909Z,77214.02
2019-02-02T18:36:54.150Z,77227.08
2019-02-02T18:39:25.390Z,77224.07
2019-02-02T18:41:56.688Z,77226.08
2019-02-02T18:44:31.090Z,77233.12
2019-02-02T18:47:02.429Z,77241.16
2019-02-02T18:49:33.769Z,77258.25
2019-02-02T18:52:06.213Z,77266.29
2019-02-02T18:54:39.398Z,77274.33
2019-02-02T18:57:10.853Z,77279.36
2019-02-02T18:59:46.442Z,77282.38
2019-02-02T19:02:18.056Z,77285.39
2019-02-02T19:05:03.462Z,77279.36
2019-02-02T19:07:27.162Z,77270.31
2019-02-02T19:09:58.669Z,77280.37
2019-02-02T19:12:29.960Z,77276.34
2019-02-02T19:15:07.513Z,77275.34
2019-02-02T19:17:39.122Z,77294.44
2019-02-02T19:20:15.218Z,77289.41
2019-02-02T19:22:51.083Z,77300.47
2019-02-02T19:25:22.719Z,77299.47
2019-02-02T19:27:54.217Z,77305.50
2019-02-02T19:30:29.133Z,77307.51
2019-02-02T19:33:01.553Z,77329.63
2019-02-02T19:35:33.497Z,77340.68
2019-02-02T19:38:04.927Z,77336.66
2019-02-02T19:40:36.374Z,77334.65
2019-02-02T19:43:07.971Z,77346.72
2019-02-02T19:45:42.492Z,77344.70
2019-02-02T19:48:17.963Z,77347.72
2019-02-02T19:50:49.170Z,77356.77
2019-02-02T19:53:20.892Z,77364.81
2019-02-02T19:55:52.206Z,77366.82
2019-02-02T19:58:23.545Z,77365.81
2019-02-02T20:00:54.955Z,77372.85
2019-02-02T20:03:26.178Z,77363.80
2019-02-02T20:05:57.455Z,77365.81
2019-02-02T20:08:28.771Z,77374.86
2019-02-02T20:11:01.574Z,77375.87
2019-02-02T20:13:38.701Z,77373.86
2019-02-02T20:16:10.211Z,77368.83
2019-02-02T20:18:41.583Z,77381.90
2019-02-02T20:21:15.546Z,77379.89
2019-02-02T20:23:46.838Z,77386.92
2019-02-02T20:26:18.093Z,77391.95
2019-02-02T20:28:49.372Z,77391.95
2019-02-02T20:31:20.693Z,77396.98
2019-02-02T20:33:51.990Z,77419.09
2019-02-02T20:36:23.215Z,77407.03
2019-02-02T20:38:54.380Z,77409.05
2019-02-02T20:41:25.709Z,77411.05
2019-02-02T20:43:56.871Z,77422.11
2019-02-02T20:46:28.146Z,77426.13
2019-02-02T20:48:59.312Z,77424.13
2019-02-02T20:51:30.627Z,77432.17
2019-02-02T20:54:01.851Z,77432.17
2019-02-02T20:56:33.109Z,77433.17
2019-02-02T20:59:04.363Z,77436.19
2019-02-02T21:01:35.670Z,77439.20
2019-02-02T21:04:07.176Z,77441.22
2019-02-02T21:06:38.473Z,77434.18
2019-02-02T21:09:10.422Z,77428.14
2019-02-02T21:11:41.749Z,77444.23
2019-02-02T21:14:13.029Z,77441.22
2019-02-02T21:16:44.278Z,77447.25
2019-02-02T21:19:15.543Z,77450.27
2019-02-02T21:21:47.181Z,77451.27
2019-02-02T21:24:18.605Z,77470.37
2019-02-02T21:26:50.014Z,77464.34
2019-02-02T21:29:21.297Z,77467.35
2019-02-02T21:31:52.701Z,77471.38
2019-02-02T21:34:24.288Z,77483.44
2019-02-02T21:36:55.546Z,77464.34
2019-02-02T21:39:26.839Z,77481.43
2019-02-02T21:41:57.972Z,77468.36
2019-02-02T21:44:29.711Z,77481.43
2019-02-02T21:47:01.102Z,77496.51
2019-02-02T21:49:32.391Z,77510.58
2019-02-02T21:52:03.846Z,77497.52
2019-02-02T21:54:37.271Z,77514.61
2019-02-02T21:57:08.841Z,77527.67
2019-02-02T21:59:50.451Z,77536.72
2019-02-02T22:02:21.968Z,77538.73
2019-02-02T22:04:53.262Z,77542.75
2019-02-02T22:07:24.714Z,77545.77
2019-02-02T22:09:56.057Z,77553.81
2019-02-02T22:12:27.725Z,77562.86
2019-02-02T22:15:01.746Z,77548.79
2019-02-02T22:17:42.777Z,77551.80
2019-02-02T22:20:14.658Z,77553.81
2019-02-02T22:22:46.004Z,77559.84
2019-02-02T22:25:20.292Z,77573.92
2019-02-02T22:27:58.222Z,77568.89
2019-02-02T22:30:35.290Z,77563.87
2019-02-02T22:33:07.206Z,77575.94
2019-02-02T22:35:38.478Z,77592.02
2019-02-02T22:38:09.795Z,77578.95
2019-02-02T22:40:41.097Z,77600.06
2019-02-02T22:43:12.465Z,77601.06
2019-02-02T22:45:43.824Z,77614.14
2019-02-02T22:48:16.690Z,77614.14
2019-02-02T22:50:47.956Z,77617.16
2019-02-02T22:53:19.183Z,77622.18
2019-02-02T22:55:50.524Z,77615.14
2019-02-02T22:58:21.798Z,77615.14
2019-02-02T23:01:26.060Z,77636.26
2019-02-02T23:05:03.283Z,77649.33
2019-02-02T23:08:06.308Z,77650.33
2019-02-02T23:11:51.990Z,77667.42
2019-02-02T23:15:28.767Z,77671.45
2019-02-02T23:18:00.073Z,77678.48
2019-02-02T23:20:31.321Z,77676.47
2019-02-02T23:23:02.671Z,77688.53
2019-02-02T23:25:34.877Z,77691.55
2019-02-02T23:28:06.220Z,77694.56
2019-02-02T23:30:37.465Z,77696.58
2019-02-02T23:33:10.717Z,77694.56
2019-02-02T23:35:41.938Z,77691.55
2019-02-02T23:38:13.674Z,77690.55
2019-02-02T23:40:44.930Z,77700.60
2019-02-02T23:43:16.240Z,77708.64
2019-02-02T23:45:47.515Z,77714.67
2019-02-02T23:48:18.810Z,77716.69
2019-02-02T23:50:50.260Z,77709.65
2019-02-02T23:53:21.635Z,77712.67
2019-02-02T23:55:52.864Z,77715.69
2019-02-02T23:58:24.147Z,77712.67
